Terminal Aerodrome Forecast
Issued by NWS

Home | Current Version | Previous Version | Text Only | Print | Product List | Glossary On
Versions: 1 2 3 4 5 6 7 8 9 10 11 12
000
FTUS45 KGJT 060547
TAFDRO
TAF
KDRO 060547Z 0606/0706 17008KT P6SM VCSH BKN110
     FM060900 08008KT P6SM SCT110 BKN200
     FM061400 11009KT P6SM BKN200
     FM061700 15011KT P6SM BKN250
     FM070200 15007KT P6SM BKN090
     FM070400 VRB03KT P6SM BKN100=

USA.gov is the U.S. government's official web portal to all federal, state and local government web resources and services.